map of ONT home
ONT - Airport
Location
City:  Ontario, California, United States
Name:Ontario International Airport
ICAO:KONT
IATA:ONT
FAA LID:ONT

Details
Type:Airport (Part 139 Class I)
Use:Public/Civil
Latitude:34°03'22"N (34.056000)
Longitude:117°36'04"W (-117.601193)
Datum:WGS 1984
Elevation:944 ft (288 m)
Variation:11.78°E (WMM2015 magnetic declination)
-0.09° annual change
Runways:2
Longest:12197 × 150 ft (3718 × 45.5 m), paved

Time
Time Zone:UTC-8 (DST-7)
Local Time:

Weather
METAR:KONT 142253Z 34003KT 10SM CLR 26/M11 A3013 RMK AO2 SLP192 T02611106
TAF:KONT 142320Z 1500/1606 VRB03KT P6SM FEW200
FM152100 29008KT P6SM SKC
FM160100 VRB04KT P6SM SKC

Related Locations
Nearby:
Farthest:ZSE: 11458 mi / 18440 km
St-Pierre (St-Pierre de la Réunion) [Pierrefonds], RE

Find:

   beyond  
but within

Other Information
Maps:
Delays:
NOTAMs:
Links:
Sources:

  
  • flag of United States
  • flag of California
  

Airport Diagram

Airport diagram for ONT

Airport diagram PDF

Sectional Chart

Flight Planning
at skyvector.com

Satellite Image

Google Maps Satellite view

 

Copyright © 2004-2018 Karl L. Swartz. All rights reserved.
The Great Circle Mapper name and logo are trademarks of the Great Circle Mapper.
All other trademarks mentioned herein belong to their respective owners.
Please see credits for attibutions and further copyright information.

  Follow gcmap on Facebook Follow gcmap on Twitter Follow gcmap on Google+ GCmap on LinkedIn

hCard Microformat

Geo Microformat